createdAt,value
2022-12-14T00:00:44.406Z,1.27
2022-12-14T00:03:13.865Z,1.35
2022-12-14T00:05:43.262Z,1.60
2022-12-14T00:08:12.754Z,1.35
2022-12-14T00:10:42.324Z,1.30
2022-12-14T00:13:16.591Z,2.00
2022-12-14T00:15:45.054Z,1.70
2022-12-14T00:18:22.568Z,1.33
2022-12-14T00:20:54.423Z,1.30
2022-12-14T00:23:23.265Z,1.30
2022-12-14T00:25:51.610Z,1.30
2022-12-14T00:28:19.982Z,1.30
2022-12-14T00:30:48.500Z,1.27
2022-12-14T00:33:16.888Z,1.50
2022-12-14T00:35:45.201Z,1.50
2022-12-14T00:38:14.070Z,1.40
2022-12-14T00:40:42.536Z,1.25
2022-12-14T00:43:10.847Z,1.52
2022-12-14T00:45:39.370Z,1.30
2022-12-14T00:48:10.845Z,1.60
2022-12-14T00:53:11.468Z,1.60
2022-12-14T00:55:44.365Z,1.80
2022-12-14T00:58:21.203Z,1.90
2022-12-14T01:00:59.364Z,1.90
2022-12-14T01:03:28.538Z,2.08
2022-12-14T01:05:57.470Z,1.58
2022-12-14T01:08:33.685Z,1.75
2022-12-14T01:11:11.376Z,1.92
2022-12-14T01:13:49.668Z,1.80
2022-12-14T01:16:18.904Z,2.10
2022-12-14T01:25:23.563Z,1.80
2022-12-14T01:31:18.808Z,2.30
2022-12-14T01:36:46.818Z,1.95
2022-12-14T01:39:17.179Z,1.83
2022-12-14T01:42:51.108Z,2.05
2022-12-14T01:44:58.956Z,1.92
2022-12-14T01:47:44.133Z,2.00
2022-12-14T01:50:33.259Z,2.10
2022-12-14T01:53:07.654Z,1.77
2022-12-14T01:55:39.705Z,2.00
2022-12-14T01:58:19.342Z,1.80
2022-12-14T02:00:53.799Z,1.35
2022-12-14T02:03:33.617Z,1.77
2022-12-14T02:06:07.216Z,1.92
2022-12-14T02:08:35.859Z,1.63
2022-12-14T02:11:04.598Z,1.65
2022-12-14T02:13:36.048Z,2.03
2022-12-14T02:16:04.542Z,1.70
2022-12-14T02:18:34.203Z,2.17
2022-12-14T02:21:23.622Z,1.40
2022-12-14T02:24:01.897Z,2.00
2022-12-14T02:26:39.521Z,1.40
2022-12-14T02:29:40.659Z,1.80
2022-12-14T02:32:40.152Z,2.10
2022-12-14T02:35:45.649Z,1.90
2022-12-14T02:38:29.735Z,2.08
2022-12-14T02:41:30.286Z,2.28
2022-12-14T02:44:28.034Z,2.10
2022-12-14T02:47:03.848Z,2.05
2022-12-14T02:49:43.254Z,1.85
2022-12-14T02:52:23.967Z,2.28
2022-12-14T02:55:02.972Z,1.92
2022-12-14T02:57:38.505Z,1.80
2022-12-14T03:00:08.092Z,2.38
2022-12-14T03:02:42.392Z,1.77
2022-12-14T03:05:11.979Z,1.70
2022-12-14T03:07:55.740Z,1.67
2022-12-14T03:10:38.976Z,1.52
2022-12-14T03:13:12.593Z,1.13
2022-12-14T03:15:46.363Z,1.48
2022-12-14T03:18:18.830Z,1.30
2022-12-14T03:20:52.353Z,1.50
2022-12-14T03:23:26.022Z,1.50
2022-12-14T03:26:47.061Z,1.08
2022-12-14T03:29:48.929Z,1.00
2022-12-14T03:32:21.955Z,1.50
2022-12-14T03:35:13.373Z,1.60
2022-12-14T03:37:46.732Z,0.80
2022-12-14T03:40:27.666Z,1.20
2022-12-14T03:43:19.642Z,1.10
2022-12-14T03:46:08.427Z,0.98
2022-12-14T03:48:50.902Z,1.27
2022-12-14T03:51:21.844Z,0.90
2022-12-14T03:54:14.287Z,1.15
2022-12-14T03:56:52.977Z,1.27
2022-12-14T03:59:28.260Z,1.00
2022-12-14T04:02:46.968Z,1.10
2022-12-14T04:05:31.008Z,1.38
2022-12-14T04:08:26.797Z,1.20
2022-12-14T04:11:17.085Z,1.40
2022-12-14T04:14:19.575Z,1.33
2022-12-14T04:17:10.362Z,0.90
2022-12-14T04:20:03.539Z,1.27
2022-12-14T04:22:39.316Z,1.00
2022-12-14T04:25:49.340Z,1.20
2022-12-14T04:28:43.985Z,2.03
2022-12-14T04:31:17.798Z,2.28
2022-12-14T04:33:53.391Z,1.45
2022-12-14T04:36:42.673Z,1.63
2022-12-14T04:39:21.336Z,1.60
2022-12-14T04:41:53.420Z,1.70
2022-12-14T04:44:29.653Z,2.13
2022-12-14T04:46:59.846Z,3.08
2022-12-14T04:49:33.481Z,2.28
2022-12-14T04:52:20.274Z,2.10
2022-12-14T04:55:23.685Z,2.60
2022-12-14T04:58:06.834Z,2.15
2022-12-14T05:00:39.873Z,2.20
2022-12-14T05:04:12.540Z,2.13
2022-12-14T05:06:45.560Z,2.90
2022-12-14T05:09:24.691Z,2.65
2022-12-14T05:12:16.505Z,2.50
2022-12-14T05:17:25.148Z,2.63
2022-12-14T05:19:55.069Z,2.40
2022-12-14T05:22:23.311Z,2.25
2022-12-14T05:24:51.606Z,2.25
2022-12-14T05:27:21.250Z,2.30
2022-12-14T05:29:49.434Z,2.00
2022-12-14T05:32:18.382Z,1.70
2022-12-14T05:34:46.622Z,2.65
2022-12-14T05:37:18.206Z,2.63
2022-12-14T05:39:47.034Z,1.90
2022-12-14T05:42:15.239Z,2.15
2022-12-14T05:44:43.762Z,2.20
2022-12-14T05:47:11.983Z,2.38
2022-12-14T05:49:40.293Z,2.67
2022-12-14T05:52:08.755Z,2.17
2022-12-14T05:54:37.026Z,2.80
2022-12-14T05:57:06.648Z,2.30
2022-12-14T05:59:35.247Z,2.10
2022-12-14T06:02:03.944Z,2.38
2022-12-14T06:04:32.593Z,2.33
2022-12-14T06:07:00.967Z,2.28
2022-12-14T06:09:29.317Z,3.13
2022-12-14T06:11:57.856Z,2.30
2022-12-14T06:14:26.254Z,2.55
2022-12-14T06:16:54.564Z,3.25
2022-12-14T06:19:22.836Z,2.50
2022-12-14T06:21:51.171Z,2.78
2022-12-14T06:24:19.733Z,2.58
2022-12-14T06:26:48.668Z,2.92
2022-12-14T06:29:20.440Z,3.47
2022-12-14T06:31:49.431Z,3.47
2022-12-14T06:34:23.472Z,2.53
2022-12-14T06:36:54.756Z,3.13
2022-12-14T06:39:23.090Z,3.17
2022-12-14T06:41:52.649Z,2.88
2022-12-14T06:44:21.067Z,3.10
2022-12-14T06:46:49.331Z,4.25
2022-12-14T06:49:18.159Z,3.63
2022-12-14T06:51:46.447Z,3.30
2022-12-14T06:54:16.392Z,3.00
2022-12-14T06:56:46.805Z,3.13
2022-12-14T06:59:17.853Z,2.92
2022-12-14T07:01:50.278Z,2.47
2022-12-14T07:04:21.923Z,2.97
2022-12-14T07:06:50.665Z,2.58
2022-12-14T07:09:18.979Z,2.10
2022-12-14T07:11:47.192Z,2.13
2022-12-14T07:14:19.051Z,2.58
2022-12-14T07:16:48.604Z,2.75
2022-12-14T07:19:18.282Z,2.65
2022-12-14T07:21:46.501Z,4.32
2022-12-14T07:24:15.005Z,2.83
2022-12-14T07:26:43.583Z,3.85
2022-12-14T07:29:12.892Z,2.50
2022-12-14T07:31:41.278Z,3.13
2022-12-14T07:34:13.314Z,2.50
2022-12-14T07:36:41.735Z,2.20
2022-12-14T07:39:15.771Z,3.20
2022-12-14T07:41:45.497Z,2.70
2022-12-14T07:44:14.270Z,2.40
2022-12-14T07:46:42.987Z,2.33
2022-12-14T07:49:11.503Z,2.58
2022-12-14T07:51:45.119Z,3.22
2022-12-14T07:54:14.239Z,2.55
2022-12-14T07:56:44.135Z,1.95
2022-12-14T07:59:18.540Z,2.08
2022-12-14T08:01:46.875Z,2.67
2022-12-14T08:04:18.154Z,2.28
2022-12-14T08:06:50.763Z,2.60
2022-12-14T08:09:20.888Z,2.42
2022-12-14T08:11:49.138Z,2.28
2022-12-14T08:14:19.824Z,2.53
2022-12-14T08:16:49.444Z,2.10
2022-12-14T08:19:18.641Z,2.05
2022-12-14T08:21:47.020Z,2.10
2022-12-14T08:24:17.757Z,2.30
2022-12-14T08:26:49.138Z,2.07
2022-12-14T08:29:18.582Z,2.45
2022-12-14T08:31:46.886Z,2.05
2022-12-14T08:34:17.625Z,2.35
2022-12-14T08:36:45.828Z,2.20
2022-12-14T08:39:14.330Z,1.85
2022-12-14T08:41:42.971Z,2.00
2022-12-14T08:44:11.979Z,2.10
2022-12-14T08:46:41.167Z,1.90
2022-12-14T08:49:09.487Z,1.80
2022-12-14T08:51:41.269Z,1.92
2022-12-14T08:54:09.560Z,2.00
2022-12-14T08:56:37.780Z,2.05
2022-12-14T08:59:06.064Z,1.98
2022-12-14T09:01:34.973Z,2.45
2022-12-14T09:04:08.778Z,2.53
2022-12-14T09:06:39.590Z,2.17
2022-12-14T09:09:16.161Z,2.03
2022-12-14T09:11:46.004Z,2.00
2022-12-14T09:14:14.323Z,1.95
2022-12-14T09:16:42.774Z,2.00
2022-12-14T09:19:11.238Z,1.90
2022-12-14T09:21:40.669Z,1.77
2022-12-14T09:24:10.277Z,1.98
2022-12-14T09:26:39.283Z,2.00
2022-12-14T09:29:07.595Z,1.60
2022-12-14T09:31:35.905Z,1.42
2022-12-14T09:34:04.791Z,1.50
2022-12-14T09:36:33.001Z,1.67
2022-12-14T09:39:01.242Z,1.83
2022-12-14T09:41:36.622Z,1.58
2022-12-14T09:44:18.108Z,1.85
2022-12-14T09:46:59.899Z,1.50
2022-12-14T09:49:48.256Z,1.50
2022-12-14T09:52:25.139Z,1.65
2022-12-14T09:54:55.850Z,1.75
2022-12-14T09:57:27.325Z,1.70
2022-12-14T09:59:56.160Z,1.52
2022-12-14T10:02:33.411Z,1.55
2022-12-14T10:05:49.406Z,1.95
2022-12-14T10:08:41.944Z,1.85
2022-12-14T10:11:22.535Z,1.52
2022-12-14T10:14:44.581Z,1.42
2022-12-14T10:17:28.261Z,1.63
2022-12-14T10:20:11.904Z,1.33
2022-12-14T10:22:46.461Z,1.52
2022-12-14T10:25:19.649Z,1.30
2022-12-14T10:28:13.073Z,1.90
2022-12-14T10:30:45.969Z,1.27
2022-12-14T10:33:30.423Z,1.63
2022-12-14T10:36:08.454Z,1.80
2022-12-14T10:38:42.832Z,1.63
2022-12-14T10:41:20.292Z,1.60
2022-12-14T10:44:08.179Z,1.50
2022-12-14T10:47:02.722Z,1.40
2022-12-14T10:49:43.187Z,1.65
2022-12-14T10:52:19.470Z,1.60
2022-12-14T10:55:14.606Z,1.33
2022-12-14T10:57:43.161Z,1.33
2022-12-14T11:00:22.560Z,1.25
2022-12-14T11:02:55.597Z,1.35
2022-12-14T11:05:42.190Z,1.55
2022-12-14T11:08:10.731Z,1.48
2022-12-14T11:10:42.319Z,1.63
2022-12-14T11:13:20.158Z,1.40
2022-12-14T11:15:51.162Z,1.58
2022-12-14T11:18:20.595Z,1.33
2022-12-14T11:20:58.161Z,1.10
2022-12-14T11:23:42.069Z,1.38
2022-12-14T11:26:36.730Z,1.30
2022-12-14T11:29:16.853Z,1.35
2022-12-14T11:31:47.800Z,2.22
2022-12-14T11:34:22.308Z,1.40
2022-12-14T11:36:51.114Z,1.23
2022-12-14T11:39:27.176Z,1.50
2022-12-14T11:42:05.419Z,1.40
2022-12-14T11:44:38.489Z,2.33
2022-12-14T11:47:13.597Z,1.48
2022-12-14T11:49:41.773Z,1.40
2022-12-14T11:52:14.098Z,1.20
2022-12-14T11:55:06.866Z,1.13
2022-12-14T11:57:50.043Z,1.27
2022-12-14T12:00:32.959Z,1.23
2022-12-14T12:03:03.406Z,1.45
2022-12-14T12:05:40.055Z,1.45
2022-12-14T12:08:21.654Z,1.38
2022-12-14T12:10:52.785Z,1.42
2022-12-14T12:13:28.330Z,1.38
2022-12-14T12:16:02.797Z,1.13
2022-12-14T12:18:44.523Z,1.30
2022-12-14T12:21:17.122Z,1.10
2022-12-14T12:23:51.514Z,1.05
2022-12-14T12:26:42.497Z,1.35
2022-12-14T12:29:22.600Z,1.50
2022-12-14T12:32:02.500Z,1.17
2022-12-14T12:34:50.636Z,1.13
2022-12-14T12:37:57.133Z,1.05
2022-12-14T12:40:38.640Z,1.17
2022-12-14T12:43:34.755Z,1.02
2022-12-14T12:46:20.234Z,1.48
2022-12-14T12:49:03.774Z,1.17
2022-12-14T12:51:47.715Z,1.60
2022-12-14T12:54:34.689Z,1.27
2022-12-14T12:57:05.598Z,1.10
2022-12-14T12:59:46.223Z,1.25
2022-12-14T13:02:50.366Z,1.30
2022-12-14T13:08:33.056Z,1.50
2022-12-14T13:11:37.899Z,1.30
2022-12-14T13:14:39.559Z,1.92
2022-12-14T13:17:24.524Z,1.20
2022-12-14T13:19:58.717Z,1.05
2022-12-14T13:22:42.226Z,1.55
2022-12-14T13:25:19.295Z,1.48
2022-12-14T13:28:01.910Z,1.30
2022-12-14T13:30:51.534Z,0.93
2022-12-14T13:33:57.700Z,1.00
2022-12-14T13:36:37.966Z,0.95
2022-12-14T13:39:12.344Z,1.48
2022-12-14T13:41:52.755Z,1.00
2022-12-14T13:44:53.841Z,1.10
2022-12-14T13:47:27.331Z,1.58
2022-12-14T13:50:34.836Z,1.10
2022-12-14T13:53:31.586Z,1.17
2022-12-14T13:56:02.316Z,1.02
2022-12-14T13:58:49.016Z,1.23
2022-12-14T14:01:49.367Z,0.80
2022-12-14T14:04:24.077Z,1.10
2022-12-14T14:06:54.759Z,1.02
2022-12-14T14:09:35.175Z,2.47
2022-12-14T14:12:26.285Z,2.55
2022-12-14T14:15:09.655Z,1.30
2022-12-14T14:17:37.851Z,1.20
2022-12-14T14:20:45.898Z,1.40
2022-12-14T14:23:16.919Z,1.67
2022-12-14T14:25:52.638Z,1.73
2022-12-14T14:28:27.377Z,2.17
2022-12-14T14:31:00.596Z,3.00
2022-12-14T14:33:49.402Z,3.22
2022-12-14T14:36:34.025Z,2.05
2022-12-14T14:39:38.417Z,1.25
2022-12-14T14:41:57.574Z,1.60
2022-12-14T14:44:37.945Z,1.90
2022-12-14T14:47:20.269Z,2.25
2022-12-14T14:49:55.755Z,2.90
2022-12-14T14:52:42.464Z,3.38
2022-12-14T14:55:54.441Z,3.17
2022-12-14T15:01:07.684Z,3.30
2022-12-14T15:03:53.324Z,3.20
2022-12-14T15:06:42.951Z,3.10
2022-12-14T15:09:12.061Z,2.85
2022-12-14T15:11:48.810Z,3.20
2022-12-14T15:14:21.705Z,2.78
2022-12-14T15:16:50.151Z,3.97
2022-12-14T15:19:24.337Z,3.22
2022-12-14T15:21:58.237Z,2.10
2022-12-14T15:24:27.431Z,2.25
2022-12-14T15:26:56.056Z,2.58
2022-12-14T15:29:29.070Z,2.28
2022-12-14T15:32:01.336Z,2.20
2022-12-14T15:34:29.905Z,1.67
2022-12-14T15:36:58.662Z,1.83
2022-12-14T15:39:42.956Z,1.63
2022-12-14T15:42:18.730Z,1.70
2022-12-14T15:44:52.760Z,1.58
2022-12-14T15:47:32.063Z,1.58
2022-12-14T15:50:24.879Z,1.20
2022-12-14T15:52:56.481Z,1.52
2022-12-14T15:57:58.116Z,1.10
2022-12-14T16:00:27.050Z,1.27
2022-12-14T16:02:55.830Z,1.10
2022-12-14T16:05:24.538Z,1.23
2022-12-14T16:07:58.511Z,1.50
2022-12-14T16:10:33.891Z,1.52
2022-12-14T16:13:08.322Z,1.30
2022-12-14T16:15:37.818Z,1.13
2022-12-14T16:18:06.267Z,1.27
2022-12-14T16:20:38.798Z,1.23
2022-12-14T16:23:15.884Z,1.50
2022-12-14T16:25:57.206Z,1.50
2022-12-14T16:28:35.039Z,1.50
2022-12-14T16:31:14.783Z,1.45
2022-12-14T16:33:44.581Z,1.70
2022-12-14T16:36:33.962Z,1.30
2022-12-14T16:39:23.269Z,1.20
2022-12-14T16:41:59.332Z,1.20
2022-12-14T16:44:30.970Z,1.20
2022-12-14T16:49:34.213Z,1.20
2022-12-14T16:52:16.147Z,1.10
2022-12-14T16:54:44.751Z,1.08
2022-12-14T16:57:26.840Z,1.40
2022-12-14T17:00:00.820Z,1.08
2022-12-14T17:03:01.825Z,1.30
2022-12-14T17:05:50.859Z,1.17
2022-12-14T17:08:20.507Z,1.23
2022-12-14T17:10:49.088Z,1.10
2022-12-14T17:13:17.813Z,1.08
2022-12-14T17:15:59.616Z,1.10
2022-12-14T17:18:38.773Z,1.17
2022-12-14T17:21:09.073Z,1.83
2022-12-14T17:23:39.929Z,1.30
2022-12-14T17:26:14.048Z,1.40
2022-12-14T17:28:43.012Z,1.83
2022-12-14T17:31:12.671Z,1.27
2022-12-14T17:33:41.098Z,1.40
2022-12-14T17:36:09.905Z,1.75
2022-12-14T17:38:38.272Z,1.95
2022-12-14T17:41:07.983Z,1.52
2022-12-14T17:43:36.410Z,2.00
2022-12-14T17:46:04.868Z,1.90
2022-12-14T17:48:33.210Z,1.95
2022-12-14T17:51:02.237Z,2.00
2022-12-14T17:53:31.752Z,1.65
2022-12-14T17:56:00.198Z,1.95
2022-12-14T17:58:37.894Z,2.00
2022-12-14T18:01:08.351Z,2.20
2022-12-14T18:03:37.173Z,2.50
2022-12-14T18:06:06.065Z,2.47
2022-12-14T18:08:34.707Z,2.20
2022-12-14T18:11:13.381Z,2.28
2022-12-14T18:16:30.725Z,2.20
2022-12-14T18:19:39.910Z,2.40
2022-12-14T18:22:15.060Z,2.15
2022-12-14T18:24:49.257Z,2.70
2022-12-14T18:27:18.057Z,2.30
2022-12-14T18:29:57.030Z,2.85
2022-12-14T18:32:32.155Z,2.85
2022-12-14T18:35:12.249Z,2.40
2022-12-14T18:43:44.418Z,3.00
2022-12-14T18:46:14.975Z,2.60
2022-12-14T18:48:44.651Z,2.45
2022-12-14T18:51:29.805Z,3.15
2022-12-14T18:54:01.717Z,2.58
2022-12-14T18:56:32.399Z,2.13
2022-12-14T19:02:01.217Z,2.50
2022-12-14T19:24:02.328Z,1.75
2022-12-14T19:27:07.719Z,2.30
2022-12-14T19:33:04.953Z,1.98
2022-12-14T19:35:28.300Z,1.98
2022-12-14T19:42:56.473Z,2.10
2022-12-14T19:46:03.879Z,2.03
2022-12-14T19:52:06.659Z,2.20
2022-12-14T19:55:07.046Z,1.90
2022-12-14T19:58:08.756Z,2.20
2022-12-14T20:04:11.151Z,2.50
2022-12-14T20:07:00.915Z,2.78
2022-12-14T20:10:00.281Z,2.10
2022-12-14T20:15:30.345Z,2.38
2022-12-14T20:18:07.803Z,2.53
2022-12-14T20:20:36.829Z,2.30
2022-12-14T20:23:07.572Z,2.55
2022-12-14T20:28:20.794Z,1.88
2022-12-14T20:30:52.902Z,2.30
2022-12-14T20:33:31.172Z,2.70
2022-12-14T20:36:00.162Z,2.13
2022-12-14T20:38:33.625Z,2.28
2022-12-14T20:41:30.724Z,2.17
2022-12-14T20:51:33.847Z,2.08
2022-12-14T20:54:34.004Z,2.50
2022-12-14T21:00:31.917Z,2.85
2022-12-14T21:06:30.943Z,2.72
2022-12-14T21:14:36.831Z,2.85
2022-12-14T21:17:34.003Z,2.90
2022-12-14T21:25:30.377Z,3.03
2022-12-14T21:28:05.501Z,3.00
2022-12-14T21:30:35.392Z,3.10
2022-12-14T21:33:05.433Z,3.60
2022-12-14T21:35:33.682Z,3.15
2022-12-14T21:38:02.457Z,3.55
2022-12-14T21:40:49.703Z,3.75
2022-12-14T21:43:28.259Z,3.55
2022-12-14T21:45:59.747Z,3.70
2022-12-14T21:48:28.065Z,3.30
2022-12-14T21:50:56.471Z,3.50
2022-12-14T21:53:25.966Z,3.22
2022-12-14T21:56:16.906Z,3.13
2022-12-14T21:58:48.549Z,3.33
2022-12-14T22:01:21.548Z,3.15
2022-12-14T22:03:54.277Z,3.10
2022-12-14T22:06:30.824Z,3.20
2022-12-14T22:09:28.817Z,2.30
2022-12-14T22:12:00.156Z,2.85
2022-12-14T22:14:31.646Z,2.78
2022-12-14T22:19:31.222Z,2.38
2022-12-14T22:22:03.940Z,2.42
2022-12-14T22:24:32.369Z,2.17
2022-12-14T22:27:01.100Z,2.72
2022-12-14T22:29:29.995Z,2.28
2022-12-14T22:31:59.287Z,2.25
2022-12-14T22:37:02.090Z,2.20
2022-12-14T22:39:30.713Z,2.50
2022-12-14T22:42:02.153Z,2.30
2022-12-14T22:46:59.004Z,2.50
2022-12-14T22:49:30.262Z,2.20
2022-12-14T22:52:01.504Z,2.47
2022-12-14T22:54:31.713Z,2.28
2022-12-14T22:57:03.694Z,2.40
2022-12-14T22:59:42.760Z,2.33
2022-12-14T23:02:16.962Z,2.10
2022-12-14T23:04:50.394Z,2.40
2022-12-14T23:07:19.029Z,2.40
2022-12-14T23:10:08.289Z,2.70
2022-12-14T23:12:54.886Z,2.78
2022-12-14T23:15:41.671Z,3.10
2022-12-14T23:18:28.222Z,3.10
2022-12-14T23:21:17.698Z,3.10
2022-12-14T23:24:05.199Z,2.90
2022-12-14T23:26:53.338Z,2.75
2022-12-14T23:29:40.221Z,2.63
2022-12-14T23:32:26.744Z,3.03
2022-12-14T23:35:14.017Z,3.30
2022-12-14T23:38:00.696Z,3.40
2022-12-14T23:40:47.145Z,3.08
2022-12-14T23:43:37.601Z,3.63
2022-12-14T23:46:24.699Z,3.50
2022-12-14T23:49:15.604Z,3.15
2022-12-14T23:52:03.293Z,3.25
2022-12-14T23:54:51.307Z,3.30
2022-12-14T23:57:38.093Z,3.38
